Time;durP1;ratioP1;P1;durP2;ratioP2;P2;SDS_P1;SDS_P2;PMS_P1;PMS_P2;Temp;Humidity;BMP_temperature;BMP_pressure;BME280_temperature;BME280_humidity;BME280_pressure;Samples;Min_cycle;Max_cycle;Signal;HPM_P1;HPM_P2
2021/01/15 00:04:42;;;;;;;13.15;7.10;;;;;;;;;;4724243;28;20210;-50
2021/01/15 00:07:29;;;;;;;13.38;7.07;;;;;;;;;;4181998;34;20098;-48
2021/01/15 00:09:55;;;;;;;14.15;6.68;;;;;;;;;;4190302;34;20118;-48
2021/01/15 00:12:21;;;;;;;11.63;6.93;;;;;;;;;;4205007;34;20098;-48
2021/01/15 00:14:47;;;;;;;13.70;6.95;;;;;;;;;;4204538;34;20141;-48
2021/01/15 00:17:13;;;;;;;13.70;7.80;;;;;;;;;;4204935;34;20620;-52
2021/01/15 00:19:38;;;;;;;12.57;7.80;;;;;;;;;;4204520;34;20145;-48
2021/01/15 00:22:04;;;;;;;18.95;7.68;;;;;;;;;;4200120;34;20194;-49
2021/01/15 00:24:30;;;;;;;12.60;7.50;;;;;;;;;;4190828;34;20110;-51
2021/01/15 00:26:56;;;;;;;12.25;7.62;;;;;;;;;;4190906;34;20146;-53
2021/01/15 00:29:22;;;;;;;11.05;6.68;;;;;;;;;;4190056;34;20125;-54
2021/01/15 00:31:48;;;;;;;9.93;6.78;;;;;;;;;;4190703;34;20529;-50
2021/01/15 00:34:15;;;;;;;12.18;6.90;;;;;;;;;;4190555;34;20106;-49
2021/01/15 00:36:42;;;;;;;12.07;7.32;;;;;;;;;;4190339;34;20125;-49
2021/01/15 00:39:09;;;;;;;14.25;7.43;;;;;;;;;;4194975;34;20122;-48
2021/01/15 00:41:38;;;;;;;11.07;6.68;;;;;;;;;;4191549;34;20125;-52
2021/01/15 00:44:05;;;;;;;12.70;7.25;;;;;;;;;;4204188;34;20100;-48
2021/01/15 00:46:34;;;;;;;13.52;6.78;;;;;;;;;;4191594;34;20145;-48
2021/01/15 00:49:09;;;;;;;12.10;7.25;;;;;;;;;;4204373;34;20117;-48
2021/01/15 00:51:35;;;;;;;13.18;7.18;;;;;;;;;;4191492;34;20141;-51
2021/01/15 00:54:02;;;;;;;13.90;7.07;;;;;;;;;;4204165;34;20129;-50
2021/01/15 00:56:28;;;;;;;18.45;7.90;;;;;;;;;;4204160;34;20139;-49
2021/01/15 00:58:54;;;;;;;15.15;7.12;;;;;;;;;;4204080;34;20972;-50
2021/01/15 01:01:21;;;;;;;12.68;7.50;;;;;;;;;;4204312;34;20221;-48
2021/01/15 01:03:47;;;;;;;16.37;7.32;;;;;;;;;;4204049;34;20469;-49
2021/01/15 01:06:15;;;;;;;13.60;7.45;;;;;;;;;;4201286;34;20095;-48
2021/01/15 01:08:41;;;;;;;13.45;7.07;;;;;;;;;;4190290;34;20114;-52
2021/01/15 01:11:20;;;;;;;13.18;7.68;;;;;;;;;;4190385;34;20210;-49
2021/01/15 01:13:56;;;;;;;12.65;7.37;;;;;;;;;;4190540;34;20094;-50
2021/01/15 01:16:22;;;;;;;12.20;7.60;;;;;;;;;;4177469;34;20102;-49
2021/01/15 01:18:49;;;;;;;18.98;7.82;;;;;;;;;;4177714;34;20094;-50
2021/01/15 01:21:15;;;;;;;16.15;7.37;;;;;;;;;;4190200;34;20114;-54
2021/01/15 01:23:41;;;;;;;13.48;7.72;;;;;;;;;;4190086;34;20133;-50
2021/01/15 01:26:07;;;;;;;14.20;7.22;;;;;;;;;;4190263;34;20517;-48
2021/01/15 01:28:33;;;;;;;14.27;7.53;;;;;;;;;;4190200;34;20608;-48
2021/01/15 01:30:59;;;;;;;10.60;7.20;;;;;;;;;;4190045;34;20113;-49
2021/01/15 01:33:25;;;;;;;14.73;7.80;;;;;;;;;;4190095;34;20116;-50
2021/01/15 01:35:51;;;;;;;11.18;6.93;;;;;;;;;;4190130;34;20126;-48
2021/01/15 01:38:17;;;;;;;14.32;7.45;;;;;;;;;;4190302;34;20537;-49
2021/01/15 01:40:44;;;;;;;12.25;7.20;;;;;;;;;;4196663;34;20122;-50
2021/01/15 01:43:10;;;;;;;14.60;7.43;;;;;;;;;;4205961;34;20113;-48
2021/01/15 01:45:36;;;;;;;14.02;8.20;;;;;;;;;;4205996;34;20533;-49
2021/01/15 01:48:02;;;;;;;14.35;7.07;;;;;;;;;;4205930;34;20101;-49
2021/01/15 01:50:28;;;;;;;15.38;7.60;;;;;;;;;;4181543;34;20140;-50
2021/01/15 01:52:54;;;;;;;15.43;7.62;;;;;;;;;;4192982;34;20182;-49
2021/01/15 01:55:20;;;;;;;17.55;7.70;;;;;;;;;;4192883;34;20154;-48
2021/01/15 01:57:46;;;;;;;11.50;6.82;;;;;;;;;;4181905;34;20548;-49
2021/01/15 02:00:12;;;;;;;11.32;7.62;;;;;;;;;;4192999;34;20141;-49
2021/01/15 02:02:38;;;;;;;12.98;7.82;;;;;;;;;;4192924;34;20114;-49
2021/01/15 02:05:05;;;;;;;13.40;7.32;;;;;;;;;;4205688;34;20144;-50
2021/01/15 02:07:31;;;;;;;13.10;6.87;;;;;;;;;;4202900;34;20125;-50
2021/01/15 02:10:05;;;;;;;14.60;7.57;;;;;;;;;;4167862;34;20122;-53
2021/01/15 02:12:49;;;;;;;15.60;7.60;;;;;;;;;;4192275;34;20102;-49
2021/01/15 02:15:27;;;;;;;14.63;8.18;;;;;;;;;;4179272;34;20197;-51
2021/01/15 02:18:02;;;;;;;13.70;7.20;;;;;;;;;;4191870;34;20479;-49
2021/01/15 02:20:31;;;;;;;18.00;8.57;;;;;;;;;;4179079;34;20227;-49
2021/01/15 02:23:18;;;;;;;14.35;8.63;;;;;;;;;;4191784;34;20455;-49
2021/01/15 02:26:22;;;;;;;18.75;8.60;;;;;;;;;;4178887;34;20221;-48
2021/01/15 02:29:00;;;;;;;21.08;12.27;;;;;;;;;;4191790;34;20121;-50
2021/01/15 02:31:44;;;;;;;17.62;8.75;;;;;;;;;;4191827;34;20214;-52
2021/01/15 02:34:48;;;;;;;16.45;8.43;;;;;;;;;;4191653;34;20469;-56
2021/01/15 02:37:18;;;;;;;23.52;8.07;;;;;;;;;;4176897;34;20136;-48
2021/01/15 02:40:07;;;;;;;17.20;8.15;;;;;;;;;;4179062;34;20137;-48
2021/01/15 02:42:36;;;;;;;16.23;7.75;;;;;;;;;;4191851;34;20126;-52
2021/01/15 02:45:08;;;;;;;15.52;8.82;;;;;;;;;;4191693;34;20194;-48
2021/01/15 02:48:06;;;;;;;15.52;8.88;;;;;;;;;;4178800;34;20121;-52
2021/01/15 02:50:32;;;;;;;17.65;9.15;;;;;;;;;;4163203;34;20137;-49
2021/01/15 02:52:59;;;;;;;19.58;8.77;;;;;;;;;;4191521;34;20114;-49
2021/01/15 02:55:25;;;;;;;14.52;8.80;;;;;;;;;;4191565;34;20262;-50
2021/01/15 02:57:51;;;;;;;15.38;9.00;;;;;;;;;;4179081;34;20125;-50
2021/01/15 03:00:19;;;;;;;12.60;8.45;;;;;;;;;;4191617;34;20206;-50
2021/01/15 03:02:44;;;;;;;17.00;9.18;;;;;;;;;;4178697;34;20514;-48
2021/01/15 03:05:19;;;;;;;14.73;9.02;;;;;;;;;;4191314;34;20222;-52
2021/01/15 03:07:46;;;;;;;13.15;8.57;;;;;;;;;;4167824;34;20587;-50
2021/01/15 03:10:12;;;;;;;14.60;9.82;;;;;;;;;;4167554;34;20435;-53
2021/01/15 03:12:42;;;;;;;19.02;9.48;;;;;;;;;;4191667;34;20118;-48
2021/01/15 03:15:09;;;;;;;23.02;10.27;;;;;;;;;;4191372;34;20106;-50
2021/01/15 03:17:36;;;;;;;16.55;9.35;;;;;;;;;;4167409;34;20181;-51
2021/01/15 03:20:03;;;;;;;14.55;8.65;;;;;;;;;;4167423;34;20434;-47
2021/01/15 03:22:29;;;;;;;15.57;9.85;;;;;;;;;;4191274;34;20114;-49
2021/01/15 03:24:59;;;;;;;20.70;9.27;;;;;;;;;;4166896;34;20125;-50
2021/01/15 03:27:48;;;;;;;17.08;10.32;;;;;;;;;;4178534;34;20438;-49
2021/01/15 03:30:22;;;;;;;22.37;9.73;;;;;;;;;;4184536;34;20122;-50
2021/01/15 03:32:49;;;;;;;16.37;10.15;;;;;;;;;;4179209;34;20119;-50
2021/01/15 03:35:24;;;;;;;13.60;9.52;;;;;;;;;;4191255;34;20121;-49
2021/01/15 03:37:54;;;;;;;16.85;9.85;;;;;;;;;;4168075;34;20095;-52
2021/01/15 03:40:20;;;;;;;17.05;10.15;;;;;;;;;;4191062;34;20122;-53
2021/01/15 03:42:46;;;;;;;13.65;9.82;;;;;;;;;;4191079;34;20510;-54
2021/01/15 03:45:13;;;;;;;22.33;9.95;;;;;;;;;;4191171;34;20508;-52
2021/01/15 03:47:38;;;;;;;16.45;9.93;;;;;;;;;;4191292;34;20094;-50
2021/01/15 03:50:05;;;;;;;16.55;10.80;;;;;;;;;;4178351;34;20198;-49
2021/01/15 03:52:31;;;;;;;14.30;10.20;;;;;;;;;;4191149;34;20134;-53
2021/01/15 03:54:57;;;;;;;20.90;11.30;;;;;;;;;;4191116;34;20560;-50
2021/01/15 03:57:23;;;;;;;18.27;10.18;;;;;;;;;;4191089;34;20118;-50
2021/01/15 03:59:49;;;;;;;14.87;9.93;;;;;;;;;;4178489;34;20194;-49
2021/01/15 04:02:14;;;;;;;19.15;11.02;;;;;;;;;;4190184;34;20094;-49
2021/01/15 04:04:41;;;;;;;14.65;10.48;;;;;;;;;;4190359;34;20219;-48
2021/01/15 04:07:07;;;;;;;19.55;10.73;;;;;;;;;;4178163;34;20513;-52
2021/01/15 04:09:33;;;;;;;20.42;10.57;;;;;;;;;;4191011;34;20134;-49
2021/01/15 04:11:59;;;;;;;19.52;13.80;;;;;;;;;;4190883;34;20130;-49
2021/01/15 04:14:25;;;;;;;20.90;12.07;;;;;;;;;;4190797;34;20126;-49
2021/01/15 04:16:51;;;;;;;23.52;12.15;;;;;;;;;;4178004;34;20193;-50
2021/01/15 04:19:17;;;;;;;21.23;12.32;;;;;;;;;;4190820;34;20224;-49
2021/01/15 04:21:43;;;;;;;23.17;12.37;;;;;;;;;;4190980;34;20634;-51
2021/01/15 04:24:09;;;;;;;18.45;11.35;;;;;;;;;;4178108;34;20125;-52
2021/01/15 04:26:35;;;;;;;21.62;11.80;;;;;;;;;;4190826;34;20229;-51
2021/01/15 04:29:05;;;;;;;22.58;11.60;;;;;;;;;;4178077;34;20118;-49
2021/01/15 04:31:31;;;;;;;20.85;11.90;;;;;;;;;;4178184;34;20114;-50
2021/01/15 04:33:57;;;;;;;25.25;12.02;;;;;;;;;;4190622;34;20182;-52
2021/01/15 04:36:25;;;;;;;21.25;11.63;;;;;;;;;;4190723;34;20206;-54
2021/01/15 04:38:51;;;;;;;23.67;12.82;;;;;;;;;;4178240;34;20526;-49
2021/01/15 04:41:26;;;;;;;27.02;13.43;;;;;;;;;;4190516;34;20102;-52
2021/01/15 04:43:54;;;;;;;22.85;12.68;;;;;;;;;;4166835;34;20098;-54
2021/01/15 04:46:21;;;;;;;20.20;13.10;;;;;;;;;;4177576;34;20125;-53
2021/01/15 04:48:51;;;;;;;24.17;11.95;;;;;;;;;;4177804;34;20111;-50
2021/01/15 04:51:22;;;;;;;19.48;11.73;;;;;;;;;;4177460;34;20578;-48
2021/01/15 04:54:01;;;;;;;23.12;12.50;;;;;;;;;;4177704;34;20105;-55
2021/01/15 04:56:48;;;;;;;24.95;14.30;;;;;;;;;;4177553;34;20254;-49
2021/01/15 04:59:14;;;;;;;22.10;13.45;;;;;;;;;;4190138;34;20541;-50
2021/01/15 05:01:41;;;;;;;28.48;17.12;;;;;;;;;;4190085;34;20184;-50
2021/01/15 05:04:11;;;;;;;33.13;17.05;;;;;;;;;;4190128;34;20129;-48
2021/01/15 05:06:46;;;;;;;30.60;16.73;;;;;;;;;;4177422;34;20102;-49
2021/01/15 05:09:16;;;;;;;27.40;16.37;;;;;;;;;;4190271;34;20128;-51
2021/01/15 05:11:43;;;;;;;23.83;17.42;;;;;;;;;;4177891;34;20145;-52
2021/01/15 05:14:13;;;;;;;27.13;17.35;;;;;;;;;;4177853;34;20114;-50
2021/01/15 05:16:41;;;;;;;26.10;16.42;;;;;;;;;;4192272;34;20119;-49
2021/01/15 05:19:08;;;;;;;28.58;17.00;;;;;;;;;;4179610;34;20637;-50
2021/01/15 05:21:34;;;;;;;27.20;17.50;;;;;;;;;;4192118;34;20530;-49
2021/01/15 05:24:00;;;;;;;28.80;19.10;;;;;;;;;;4192265;34;20545;-49
2021/01/15 05:26:26;;;;;;;36.20;18.65;;;;;;;;;;4192168;34;20112;-49
2021/01/15 05:28:53;;;;;;;33.45;19.80;;;;;;;;;;4192515;34;20193;-49
2021/01/15 05:31:20;;;;;;;30.83;19.52;;;;;;;;;;4192192;34;20142;-49
2021/01/15 05:34:06;;;;;;;33.88;19.15;;;;;;;;;;4192242;34;20529;-49
2021/01/15 05:36:35;;;;;;;29.63;20.45;;;;;;;;;;4192258;34;20122;-50
2021/01/15 05:39:08;;;;;;;35.45;22.62;;;;;;;;;;4168441;34;20222;-51
2021/01/15 05:41:34;;;;;;;39.40;23.42;;;;;;;;;;4192311;34;20106;-48
2021/01/15 05:44:01;;;;;;;41.13;24.55;;;;;;;;;;4192200;34;20537;-51
2021/01/15 05:46:29;;;;;;;41.50;24.08;;;;;;;;;;4192391;34;20133;-49
2021/01/15 05:48:57;;;;;;;43.20;23.50;;;;;;;;;;4179342;34;20116;-48
2021/01/15 05:51:27;;;;;;;44.38;26.52;;;;;;;;;;4192035;34;20115;-47
2021/01/15 05:53:53;;;;;;;47.95;27.45;;;;;;;;;;4179301;34;20142;-53
2021/01/15 05:56:23;;;;;;;51.20;31.15;;;;;;;;;;4167728;34;20513;-48
2021/01/15 05:59:08;;;;;;;48.97;30.37;;;;;;;;;;4191935;34;20499;-49
2021/01/15 06:01:39;;;;;;;49.25;30.50;;;;;;;;;;4191905;34;20125;-50
2021/01/15 06:04:05;;;;;;;54.08;33.78;;;;;;;;;;4191982;34;20113;-48
2021/01/15 06:06:31;;;;;;;77.35;45.90;;;;;;;;;;4191746;34;20110;-50
2021/01/15 06:09:01;;;;;;;94.28;53.58;;;;;;;;;;4167713;34;20114;-49
2021/01/15 06:11:27;;;;;;;86.37;50.85;;;;;;;;;;4178932;34;20137;-51
2021/01/15 06:13:53;;;;;;;92.47;48.08;;;;;;;;;;4167786;34;20136;-51
2021/01/15 06:16:19;;;;;;;96.65;52.67;;;;;;;;;;4191624;34;20116;-51
2021/01/15 06:18:58;;;;;;;89.35;51.30;;;;;;;;;;4191942;34;20111;-50
2021/01/15 06:21:34;;;;;;;74.70;43.00;;;;;;;;;;4191657;34;20121;-48
2021/01/15 06:24:07;;;;;;;72.62;39.92;;;;;;;;;;4191747;34;20134;-49
2021/01/15 06:26:39;;;;;;;74.03;41.95;;;;;;;;;;4191001;34;20141;-50
2021/01/15 06:29:10;;;;;;;80.95;35.33;;;;;;;;;;4179079;34;20499;-49
2021/01/15 06:32:02;;;;;;;74.35;33.42;;;;;;;;;;4191576;34;20225;-50
2021/01/15 06:34:28;;;;;;;74.28;34.45;;;;;;;;;;4189470;34;20217;-51
2021/01/15 06:36:54;;;;;;;74.05;36.70;;;;;;;;;;4167464;34;20121;-48
2021/01/15 06:39:21;;;;;;;76.62;36.70;;;;;;;;;;4178915;34;20527;-50
2021/01/15 06:42:01;;;;;;;76.87;36.65;;;;;;;;;;4191713;34;20486;-51
2021/01/15 06:44:27;;;;;;;66.65;37.10;;;;;;;;;;4180042;34;20109;-49
2021/01/15 06:46:53;;;;;;;69.70;38.88;;;;;;;;;;4178683;34;20252;-52
2021/01/15 06:49:19;;;;;;;57.00;32.50;;;;;;;;;;4191584;34;20137;-53
2021/01/15 06:51:57;;;;;;;60.17;31.55;;;;;;;;;;4167635;34;20134;-50
2021/01/15 06:54:39;;;;;;;60.78;29.15;;;;;;;;;;4191606;34;20118;-49
2021/01/15 06:57:12;;;;;;;45.28;26.42;;;;;;;;;;4179964;34;20090;-49
2021/01/15 06:59:39;;;;;;;38.03;22.87;;;;;;;;;;4191390;34;20128;-52
2021/01/15 07:02:08;;;;;;;43.25;23.42;;;;;;;;;;4191475;34;20170;-51
2021/01/15 07:04:40;;;;;;;33.47;19.30;;;;;;;;;;4178360;34;20507;-53
2021/01/15 07:07:15;;;;;;;35.95;22.17;;;;;;;;;;4167484;34;20129;-49
2021/01/15 07:09:48;;;;;;;36.20;20.77;;;;;;;;;;4191319;34;20110;-48
2021/01/15 07:12:15;;;;;;;35.65;21.73;;;;;;;;;;4178781;34;20098;-49
2021/01/15 07:14:58;;;;;;;43.83;21.25;;;;;;;;;;4191440;34;20462;-52
2021/01/15 07:17:30;;;;;;;42.58;22.48;;;;;;;;;;4191358;34;20105;-48
2021/01/15 07:20:10;;;;;;;47.22;24.70;;;;;;;;;;4178610;34;20094;-51
2021/01/15 07:22:43;;;;;;;42.30;27.60;;;;;;;;;;4178594;34;20208;-52
2021/01/15 07:25:10;;;;;;;46.67;31.45;;;;;;;;;;4191099;34;20094;-52
2021/01/15 07:27:36;;;;;;;49.17;30.52;;;;;;;;;;4191103;34;20129;-51
2021/01/15 07:30:03;;;;;;;46.15;29.65;;;;;;;;;;4167039;34;20549;-53
2021/01/15 07:32:31;;;;;;;50.30;30.48;;;;;;;;;;4191125;34;20116;-52
2021/01/15 07:34:58;;;;;;;49.03;31.75;;;;;;;;;;4191001;34;20120;-50
2021/01/15 07:37:28;;;;;;;47.97;29.75;;;;;;;;;;4178533;34;20132;-49
2021/01/15 07:40:09;;;;;;;47.38;31.33;;;;;;;;;;4191114;34;20121;-51
2021/01/15 07:42:45;;;;;;;51.35;31.05;;;;;;;;;;4191008;34;20549;-49
2021/01/15 07:45:23;;;;;;;49.42;29.27;;;;;;;;;;4178243;34;20120;-50
2021/01/15 07:47:53;;;;;;;37.97;28.38;;;;;;;;;;4190991;34;20106;-49
2021/01/15 07:50:29;;;;;;;39.15;29.17;;;;;;;;;;4191009;34;20212;-52
2021/01/15 07:53:19;;;;;;;48.95;31.00;;;;;;;;;;4190868;34;20507;-48
2021/01/15 07:55:51;;;;;;;44.03;30.33;;;;;;;;;;4191073;34;20555;-50
2021/01/15 07:58:25;;;;;;;47.17;31.10;;;;;;;;;;4190999;34;20681;-53
2021/01/15 08:00:51;;;;;;;43.67;30.83;;;;;;;;;;4190757;34;20598;-49
2021/01/15 08:03:18;;;;;;;39.13;29.87;;;;;;;;;;4166648;34;20117;-52
2021/01/15 08:05:44;;;;;;;37.53;28.08;;;;;;;;;;4190632;34;20106;-50
2021/01/15 08:08:17;;;;;;;44.65;30.85;;;;;;;;;;4190877;34;20124;-51
2021/01/15 08:10:50;;;;;;;44.70;31.83;;;;;;;;;;4190754;34;20156;-50
2021/01/15 08:13:16;;;;;;;46.75;33.45;;;;;;;;;;4190823;34;20124;-52
2021/01/15 08:15:42;;;;;;;52.30;37.60;;;;;;;;;;4190951;34;20181;-47
2021/01/15 08:18:08;;;;;;;69.10;44.45;;;;;;;;;;4190737;34;20114;-48
2021/01/15 08:20:34;;;;;;;74.82;54.33;;;;;;;;;;4166780;34;20106;-47
2021/01/15 08:23:00;;;;;;;58.53;44.67;;;;;;;;;;4178048;34;20439;-49
2021/01/15 08:25:27;;;;;;;61.47;43.97;;;;;;;;;;4166767;34;20110;-49
2021/01/15 08:27:54;;;;;;;58.65;46.25;;;;;;;;;;4191093;34;20194;-49
2021/01/15 08:30:20;;;;;;;62.42;45.75;;;;;;;;;;4178225;34;20129;-49
2021/01/15 08:32:45;;;;;;;62.35;49.00;;;;;;;;;;4177823;34;20109;-48
2021/01/15 08:35:25;;;;;;;65.85;48.87;;;;;;;;;;4190493;34;20109;-58
2021/01/15 08:38:01;;;;;;;89.70;64.15;;;;;;;;;;4178108;34;20114;-48
2021/01/15 08:40:29;;;;;;;126.78;93.32;;;;;;;;;;4190504;34;20111;-57
2021/01/15 08:42:55;;;;;;;130.75;103.57;;;;;;;;;;4190607;34;20129;-47
2021/01/15 08:45:28;;;;;;;91.20;67.10;;;;;;;;;;4190363;34;20539;-48
2021/01/15 08:47:55;;;;;;;93.37;69.10;;;;;;;;;;4190368;34;20158;-49
2021/01/15 08:50:23;;;;;;;106.63;80.03;;;;;;;;;;4191906;34;20118;-56
2021/01/15 08:52:49;;;;;;;124.28;92.03;;;;;;;;;;4192440;34;20511;-51
2021/01/15 08:55:16;;;;;;;130.85;100.28;;;;;;;;;;4179598;34;20116;-51
2021/01/15 08:57:41;;;;;;;122.85;88.90;;;;;;;;;;4168333;34;20184;-52
2021/01/15 09:00:14;;;;;;;100.78;70.85;;;;;;;;;;4192199;34;20598;-53
2021/01/15 09:02:41;;;;;;;96.28;65.32;;;;;;;;;;4180231;34;20113;-50
2021/01/15 09:05:09;;;;;;;81.22;57.28;;;;;;;;;;4192410;34;20114;-50
2021/01/15 09:07:45;;;;;;;73.32;50.03;;;;;;;;;;4179995;34;20152;-50
2021/01/15 09:10:13;;;;;;;69.82;46.50;;;;;;;;;;4192216;34;20107;-48
2021/01/15 09:12:44;;;;;;;55.60;37.42;;;;;;;;;;4179469;34;20459;-52
2021/01/15 09:15:23;;;;;;;49.95;33.08;;;;;;;;;;4192203;34;20103;-53
2021/01/15 09:17:54;;;;;;;54.85;39.05;;;;;;;;;;4192053;34;20126;-53
2021/01/15 09:20:30;;;;;;;49.00;33.80;;;;;;;;;;4179420;34;20117;-53
2021/01/15 09:22:58;;;;;;;49.40;30.77;;;;;;;;;;4192267;34;20117;-51
2021/01/15 09:25:25;;;;;;;44.47;27.75;;;;;;;;;;4192067;34;20126;-47
2021/01/15 09:27:51;;;;;;;42.80;32.17;;;;;;;;;;4192360;34;20514;-49
2021/01/15 09:30:18;;;;;;;48.22;31.02;;;;;;;;;;4179277;34;20198;-48
2021/01/15 09:32:44;;;;;;;42.55;30.40;;;;;;;;;;4192208;34;20213;-47
2021/01/15 09:35:11;;;;;;;41.00;26.15;;;;;;;;;;4192020;34;20695;-47
2021/01/15 09:37:38;;;;;;;35.42;20.23;;;;;;;;;;4192357;34;20237;-46
2021/01/15 09:40:07;;;;;;;27.13;17.85;;;;;;;;;;4190544;34;20106;-49
2021/01/15 09:42:33;;;;;;;24.87;14.93;;;;;;;;;;4192242;34;20609;-48
2021/01/15 09:44:59;;;;;;;20.10;12.70;;;;;;;;;;4179445;34;20142;-51
2021/01/15 09:47:25;;;;;;;15.43;11.15;;;;;;;;;;4192067;34;20529;-50
2021/01/15 09:49:51;;;;;;;14.23;9.65;;;;;;;;;;4192118;34;20153;-54
2021/01/15 09:52:17;;;;;;;14.85;11.65;;;;;;;;;;4192052;34;20675;-52
2021/01/15 09:54:43;;;;;;;15.88;12.75;;;;;;;;;;4193691;34;20601;-49
2021/01/15 09:57:08;;;;;;;16.17;10.43;;;;;;;;;;4199544;34;20214;-51
2021/01/15 09:59:34;;;;;;;16.55;10.02;;;;;;;;;;4196212;34;20146;-52
2021/01/15 10:02:00;;;;;;;15.25;10.30;;;;;;;;;;4191777;34;20112;-52
2021/01/15 10:04:26;;;;;;;22.62;11.73;;;;;;;;;;4191305;34;20118;-52
2021/01/15 10:06:52;;;;;;;21.58;10.10;;;;;;;;;;4205879;34;20122;-50
2021/01/15 10:09:18;;;;;;;16.45;9.85;;;;;;;;;;4185749;34;20202;-52
2021/01/15 10:11:45;;;;;;;18.23;10.90;;;;;;;;;;4182281;34;20112;-53
2021/01/15 10:14:17;;;;;;;15.68;9.75;;;;;;;;;;4192783;34;20141;-52
2021/01/15 10:16:46;;;;;;;15.13;9.77;;;;;;;;;;4185296;34;20125;-53
2021/01/15 10:19:12;;;;;;;17.98;11.32;;;;;;;;;;4191784;34;20126;-53
2021/01/15 10:21:39;;;;;;;13.62;9.02;;;;;;;;;;4191721;34;20122;-52
2021/01/15 10:24:09;;;;;;;17.58;10.75;;;;;;;;;;4191858;34;20145;-55
2021/01/15 10:26:36;;;;;;;18.08;11.48;;;;;;;;;;4191917;34;20110;-50
2021/01/15 10:29:06;;;;;;;21.42;11.90;;;;;;;;;;4178846;34;20610;-50
2021/01/15 10:31:33;;;;;;;18.27;11.38;;;;;;;;;;4167994;34;20513;-51
2021/01/15 10:34:00;;;;;;;18.23;10.57;;;;;;;;;;4191644;34;20193;-49
2021/01/15 10:36:26;;;;;;;23.10;10.57;;;;;;;;;;4191671;34;20125;-52
2021/01/15 10:38:52;;;;;;;18.00;10.32;;;;;;;;;;4178826;34;20114;-50
2021/01/15 10:41:31;;;;;;;21.75;9.93;;;;;;;;;;4193261;34;20159;-49
2021/01/15 10:43:58;;;;;;;14.27;9.23;;;;;;;;;;4204448;34;20132;-52
2021/01/15 10:46:28;;;;;;;15.00;8.70;;;;;;;;;;4205149;34;20101;-49
2021/01/15 10:48:54;;;;;;;18.90;9.70;;;;;;;;;;4205354;34;20113;-48
2021/01/15 10:51:20;;;;;;;18.23;8.68;;;;;;;;;;4205234;34;20514;-49
2021/01/15 10:53:46;;;;;;;18.27;9.40;;;;;;;;;;4205293;34;20197;-50
2021/01/15 10:56:12;;;;;;;13.27;10.27;;;;;;;;;;4205218;34;20121;-52
2021/01/15 10:58:38;;;;;;;12.30;8.77;;;;;;;;;;4192353;34;20125;-51
2021/01/15 11:01:03;;;;;;;16.35;9.10;;;;;;;;;;4205197;34;20233;-49
2021/01/15 11:03:29;;;;;;;16.40;9.32;;;;;;;;;;4205105;34;20498;-50
2021/01/15 11:05:55;;;;;;;15.60;10.30;;;;;;;;;;4204958;34;20114;-51
2021/01/15 11:08:21;;;;;;;17.40;10.18;;;;;;;;;;4205249;34;20113;-48
2021/01/15 11:10:47;;;;;;;27.87;16.52;;;;;;;;;;4205138;34;20149;-49
2021/01/15 11:13:13;;;;;;;41.15;23.20;;;;;;;;;;4204747;34;20198;-49
2021/01/15 11:15:39;;;;;;;39.40;24.25;;;;;;;;;;4205033;34;20534;-51
2021/01/15 11:18:05;;;;;;;31.87;18.23;;;;;;;;;;4192149;34;20136;-50
2021/01/15 11:20:31;;;;;;;31.35;18.80;;;;;;;;;;4192206;34;20113;-47
2021/01/15 11:22:57;;;;;;;26.45;16.65;;;;;;;;;;4205173;34;20535;-50
2021/01/15 11:25:23;;;;;;;20.98;12.27;;;;;;;;;;4205030;34;20530;-49
2021/01/15 11:27:49;;;;;;;21.95;11.68;;;;;;;;;;4192373;34;20109;-50
2021/01/15 11:30:15;;;;;;;19.62;12.25;;;;;;;;;;4205120;34;20437;-50
2021/01/15 11:32:41;;;;;;;17.52;11.65;;;;;;;;;;4204977;34;20184;-50
2021/01/15 11:35:07;;;;;;;18.62;12.30;;;;;;;;;;4204894;34;20098;-50
2021/01/15 11:37:35;;;;;;;18.50;11.45;;;;;;;;;;4204874;34;20522;-49
2021/01/15 11:40:10;;;;;;;19.23;12.50;;;;;;;;;;4204858;34;20207;-49
2021/01/15 11:42:36;;;;;;;20.48;14.48;;;;;;;;;;4201903;34;20114;-49
2021/01/15 11:45:03;;;;;;;20.48;12.60;;;;;;;;;;4190967;34;20100;-48
2021/01/15 11:47:29;;;;;;;17.95;10.57;;;;;;;;;;4178565;34;20114;-52
2021/01/15 11:49:55;;;;;;;14.10;9.15;;;;;;;;;;4191250;34;20271;-49
2021/01/15 11:52:21;;;;;;;19.45;9.63;;;;;;;;;;4191059;34;20139;-52
2021/01/15 11:54:47;;;;;;;17.30;9.43;;;;;;;;;;4191082;34;20186;-50
2021/01/15 11:57:13;;;;;;;16.15;8.65;;;;;;;;;;4190930;34;20225;-48
2021/01/15 11:59:39;;;;;;;14.87;9.10;;;;;;;;;;4190861;34;20125;-50
2021/01/15 12:02:05;;;;;;;14.40;9.65;;;;;;;;;;4190854;34;20125;-49
2021/01/15 12:04:30;;;;;;;18.25;9.40;;;;;;;;;;4190819;34;20166;-52
2021/01/15 12:06:56;;;;;;;15.95;9.70;;;;;;;;;;4190874;34;20134;-51
2021/01/15 12:09:22;;;;;;;17.65;10.43;;;;;;;;;;4178091;34;20221;-49
2021/01/15 12:11:49;;;;;;;14.02;9.57;;;;;;;;;;4191002;34;20126;-50
2021/01/15 12:14:15;;;;;;;22.17;11.32;;;;;;;;;;4190729;34;20112;-52
2021/01/15 12:16:41;;;;;;;23.02;12.45;;;;;;;;;;4190845;34;20198;-50
2021/01/15 12:19:10;;;;;;;25.55;13.85;;;;;;;;;;4190763;34;20210;-51
2021/01/15 12:21:40;;;;;;;35.58;21.50;;;;;;;;;;4167465;34;20558;-51
2021/01/15 12:24:16;;;;;;;39.20;22.10;;;;;;;;;;4189538;34;20101;-53
2021/01/15 12:26:47;;;;;;;29.95;17.37;;;;;;;;;;4181548;34;20129;-50
2021/01/15 12:29:13;;;;;;;19.17;13.65;;;;;;;;;;4198152;34;20729;-48
2021/01/15 12:31:39;;;;;;;15.73;10.73;;;;;;;;;;4183623;34;20475;-48
2021/01/15 12:34:05;;;;;;;17.17;10.95;;;;;;;;;;4190536;34;20114;-53
2021/01/15 12:36:31;;;;;;;17.92;12.00;;;;;;;;;;4201856;34;20093;-50
2021/01/15 12:38:57;;;;;;;17.70;10.63;;;;;;;;;;4204392;34;20109;-50
2021/01/15 12:41:23;;;;;;;16.60;9.65;;;;;;;;;;4191525;34;20490;-59
2021/01/15 12:43:49;;;;;;;20.05;10.73;;;;;;;;;;4199992;34;20125;-53
2021/01/15 12:46:15;;;;;;;19.02;11.18;;;;;;;;;;4190352;34;20144;-52
2021/01/15 12:48:41;;;;;;;14.35;9.98;;;;;;;;;;4190515;34;20121;-56
2021/01/15 12:51:07;;;;;;;19.73;11.95;;;;;;;;;;4177609;34;20134;-54
2021/01/15 12:53:34;;;;;;;22.73;12.75;;;;;;;;;;4190305;34;20113;-52
2021/01/15 12:56:00;;;;;;;18.73;12.48;;;;;;;;;;4190402;34;20559;-53
2021/01/15 12:58:27;;;;;;;18.42;12.68;;;;;;;;;;4190278;34;20141;-55
2021/01/15 13:00:58;;;;;;;19.60;13.88;;;;;;;;;;4194337;34;20154;-53
2021/01/15 13:03:24;;;;;;;20.27;13.45;;;;;;;;;;4204089;34;20431;-50
2021/01/15 13:05:50;;;;;;;19.15;13.52;;;;;;;;;;4203712;34;20129;-54
2021/01/15 13:08:16;;;;;;;27.00;14.18;;;;;;;;;;4204088;34;20221;-53
2021/01/15 13:10:46;;;;;;;20.40;14.98;;;;;;;;;;4203816;34;20109;-57
2021/01/15 13:13:12;;;;;;;26.02;15.82;;;;;;;;;;4203952;34;20093;-54
2021/01/15 13:15:38;;;;;;;26.33;17.00;;;;;;;;;;4203808;34;20180;-55
2021/01/15 13:18:04;;;;;;;19.60;14.48;;;;;;;;;;4203836;34;20270;-54
2021/01/15 13:20:30;;;;;;;19.67;15.05;;;;;;;;;;4203840;34;20105;-58
2021/01/15 13:23:06;;;;;;;23.38;14.18;;;;;;;;;;4190878;34;20185;-60
2021/01/15 13:25:33;;;;;;;19.40;12.85;;;;;;;;;;4203781;34;20098;-58
2021/01/15 13:28:00;;;;;;;21.30;12.65;;;;;;;;;;4192886;34;20168;-56
2021/01/15 13:30:27;;;;;;;29.17;19.55;;;;;;;;;;4177335;34;20145;-57
2021/01/15 13:32:53;;;;;;;41.33;27.10;;;;;;;;;;4189829;34;20102;-56
2021/01/15 13:35:19;;;;;;;42.15;27.70;;;;;;;;;;4190756;34;20189;-56
2021/01/15 13:37:45;;;;;;;35.30;25.45;;;;;;;;;;4192195;34;20122;-57
2021/01/15 13:40:12;;;;;;;38.60;29.23;;;;;;;;;;4191939;34;20565;-60
2021/01/15 13:42:38;;;;;;;35.95;25.20;;;;;;;;;;4179182;34;20515;-59
2021/01/15 13:45:09;;;;;;;29.90;19.60;;;;;;;;;;4192105;34;20436;-60
2021/01/15 13:47:35;;;;;;;27.13;18.02;;;;;;;;;;4179326;34;20137;-60
2021/01/15 13:50:12;;;;;;;26.83;17.08;;;;;;;;;;4167799;34;20485;-58
2021/01/15 13:52:42;;;;;;;22.92;14.75;;;;;;;;;;4180489;34;20455;-54
2021/01/15 13:55:10;;;;;;;29.15;15.80;;;;;;;;;;4179046;34;20225;-57
2021/01/15 13:57:40;;;;;;;25.90;13.95;;;;;;;;;;4191885;34;20113;-57
2021/01/15 14:00:07;;;;;;;15.63;8.95;;;;;;;;;;4190307;34;20109;-57
2021/01/15 14:02:38;;;;;;;13.32;8.60;;;;;;;;;;4204820;34;20185;-56
2021/01/15 14:05:05;;;;;;;13.05;8.15;;;;;;;;;;4179521;34;20141;-55
2021/01/15 14:07:35;;;;;;;16.00;8.50;;;;;;;;;;4191596;34;20114;-58
2021/01/15 14:10:01;;;;;;;15.43;8.13;;;;;;;;;;4190230;34;20220;-59
2021/01/15 14:12:30;;;;;;;12.37;8.35;;;;;;;;;;4191685;34;20225;-57
2021/01/15 14:14:56;;;;;;;11.65;8.23;;;;;;;;;;4191900;34;20529;-55
2021/01/15 14:17:22;;;;;;;12.35;8.82;;;;;;;;;;4181157;34;20102;-55
2021/01/15 14:19:48;;;;;;;18.50;10.90;;;;;;;;;;4175717;34;20119;-53
2021/01/15 14:22:14;;;;;;;16.52;9.95;;;;;;;;;;4176984;34;20496;-53
2021/01/15 14:24:40;;;;;;;19.48;9.38;;;;;;;;;;4177453;34;20125;-51
2021/01/15 14:27:06;;;;;;;15.98;9.02;;;;;;;;;;4182346;34;20126;-53
2021/01/15 14:29:32;;;;;;;16.35;8.93;;;;;;;;;;4191793;34;20107;-53
2021/01/15 14:31:58;;;;;;;14.75;10.18;;;;;;;;;;4183172;34;20130;-53
2021/01/15 14:34:24;;;;;;;14.27;10.35;;;;;;;;;;4163998;34;20150;-53